sensor_id;sensor_type;location;lat;lon;timestamp;temperature;humidity
21047;DHT22;10682;50.874;3.656;2023-06-22T00:00:22;18.10;99.90
21047;DHT22;10682;50.874;3.656;2023-06-22T00:02:49;18.10;99.90
21047;DHT22;10682;50.874;3.656;2023-06-22T00:05:16;18.00;99.90
21047;DHT22;10682;50.874;3.656;2023-06-22T00:07:43;18.00;99.90
21047;DHT22;10682;50.874;3.656;2023-06-22T00:10:10;17.90;99.90
21047;DHT22;10682;50.874;3.656;2023-06-22T00:12:37;17.90;99.90
21047;DHT22;10682;50.874;3.656;2023-06-22T00:15:05;17.80;99.90
21047;DHT22;10682;50.874;3.656;2023-06-22T00:17:32;17.80;99.90
21047;DHT22;10682;50.874;3.656;2023-06-22T00:19:59;17.70;99.90
21047;DHT22;10682;50.874;3.656;2023-06-22T00:22:26;17.70;99.90
21047;DHT22;10682;50.874;3.656;2023-06-22T00:24:56;17.70;99.90
21047;DHT22;10682;50.874;3.656;2023-06-22T00:27:23;17.70;99.90
21047;DHT22;10682;50.874;3.656;2023-06-22T00:29:50;17.70;99.90
21047;DHT22;10682;50.874;3.656;2023-06-22T00:32:18;17.70;99.90
21047;DHT22;10682;50.874;3.656;2023-06-22T00:34:45;17.80;99.90
21047;DHT22;10682;50.874;3.656;2023-06-22T00:37:12;17.80;99.90
21047;DHT22;10682;50.874;3.656;2023-06-22T00:39:39;17.80;99.90
21047;DHT22;10682;50.874;3.656;2023-06-22T00:42:07;17.80;99.90
21047;DHT22;10682;50.874;3.656;2023-06-22T00:44:35;17.80;99.90
21047;DHT22;10682;50.874;3.656;2023-06-22T00:47:03;17.80;99.90
21047;DHT22;10682;50.874;3.656;2023-06-22T00:49:31;17.80;99.90
21047;DHT22;10682;50.874;3.656;2023-06-22T00:51:58;17.80;99.90
21047;DHT22;10682;50.874;3.656;2023-06-22T00:54:25;17.70;99.90
21047;DHT22;10682;50.874;3.656;2023-06-22T00:56:53;17.70;99.90
21047;DHT22;10682;50.874;3.656;2023-06-22T00:59:23;17.60;99.90
21047;DHT22;10682;50.874;3.656;2023-06-22T01:01:52;17.50;99.90
21047;DHT22;10682;50.874;3.656;2023-06-22T01:04:21;17.50;99.90
21047;DHT22;10682;50.874;3.656;2023-06-22T01:07:05;17.50;99.90
21047;DHT22;10682;50.874;3.656;2023-06-22T01:12:44;17.50;99.90
21047;DHT22;10682;50.874;3.656;2023-06-22T01:15:15;17.40;99.90
21047;DHT22;10682;50.874;3.656;2023-06-22T01:17:48;17.40;99.90
21047;DHT22;10682;50.874;3.656;2023-06-22T01:20:17;17.40;99.90
21047;DHT22;10682;50.874;3.656;2023-06-22T01:23:07;17.40;99.90
21047;DHT22;10682;50.874;3.656;2023-06-22T01:25:57;17.40;99.90
21047;DHT22;10682;50.874;3.656;2023-06-22T01:28:46;17.30;99.90
21047;DHT22;10682;50.874;3.656;2023-06-22T01:31:17;17.30;99.90
21047;DHT22;10682;50.874;3.656;2023-06-22T01:33:59;17.30;99.90
21047;DHT22;10682;50.874;3.656;2023-06-22T01:36:28;17.30;99.90
21047;DHT22;10682;50.874;3.656;2023-06-22T01:38:57;17.30;99.90
21047;DHT22;10682;50.874;3.656;2023-06-22T01:41:26;17.20;99.90
21047;DHT22;10682;50.874;3.656;2023-06-22T01:43:55;17.20;99.90
21047;DHT22;10682;50.874;3.656;2023-06-22T01:46:23;17.20;99.90
21047;DHT22;10682;50.874;3.656;2023-06-22T01:48:50;17.10;99.90
21047;DHT22;10682;50.874;3.656;2023-06-22T01:51:18;17.10;99.90
21047;DHT22;10682;50.874;3.656;2023-06-22T01:53:45;17.00;99.90
21047;DHT22;10682;50.874;3.656;2023-06-22T01:56:17;17.00;99.90
21047;DHT22;10682;50.874;3.656;2023-06-22T01:59:10;17.00;99.90
21047;DHT22;10682;50.874;3.656;2023-06-22T02:01:54;16.90;99.90
21047;DHT22;10682;50.874;3.656;2023-06-22T02:05:19;16.90;99.90
21047;DHT22;10682;50.874;3.656;2023-06-22T02:07:47;16.90;99.90
21047;DHT22;10682;50.874;3.656;2023-06-22T02:10:20;16.90;99.90
21047;DHT22;10682;50.874;3.656;2023-06-22T02:12:48;16.80;99.90
21047;DHT22;10682;50.874;3.656;2023-06-22T02:15:20;16.80;99.90
21047;DHT22;10682;50.874;3.656;2023-06-22T02:17:48;16.80;99.90
21047;DHT22;10682;50.874;3.656;2023-06-22T02:20:15;16.70;99.90
21047;DHT22;10682;50.874;3.656;2023-06-22T02:22:42;16.70;99.90
21047;DHT22;10682;50.874;3.656;2023-06-22T02:25:10;16.60;99.90
21047;DHT22;10682;50.874;3.656;2023-06-22T02:27:37;16.60;99.90
21047;DHT22;10682;50.874;3.656;2023-06-22T02:30:12;16.60;99.90
21047;DHT22;10682;50.874;3.656;2023-06-22T02:32:42;16.60;99.90
21047;DHT22;10682;50.874;3.656;2023-06-22T02:35:09;16.50;99.90
21047;DHT22;10682;50.874;3.656;2023-06-22T02:37:37;16.50;99.90
21047;DHT22;10682;50.874;3.656;2023-06-22T02:40:09;16.50;99.90
21047;DHT22;10682;50.874;3.656;2023-06-22T02:42:37;16.40;99.90
21047;DHT22;10682;50.874;3.656;2023-06-22T02:45:06;16.40;99.90
21047;DHT22;10682;50.874;3.656;2023-06-22T02:47:33;16.40;99.90
21047;DHT22;10682;50.874;3.656;2023-06-22T02:50:01;16.40;99.90
21047;DHT22;10682;50.874;3.656;2023-06-22T02:52:28;16.40;99.90
21047;DHT22;10682;50.874;3.656;2023-06-22T02:54:55;16.40;99.90
21047;DHT22;10682;50.874;3.656;2023-06-22T02:57:22;16.30;99.90
21047;DHT22;10682;50.874;3.656;2023-06-22T02:59:49;16.30;99.90
21047;DHT22;10682;50.874;3.656;2023-06-22T03:02:17;16.30;99.90
21047;DHT22;10682;50.874;3.656;2023-06-22T03:04:44;16.20;99.90
21047;DHT22;10682;50.874;3.656;2023-06-22T03:07:15;16.20;99.90
21047;DHT22;10682;50.874;3.656;2023-06-22T03:09:44;16.20;99.90
21047;DHT22;10682;50.874;3.656;2023-06-22T03:12:11;16.20;99.90
21047;DHT22;10682;50.874;3.656;2023-06-22T03:14:40;16.20;99.90
21047;DHT22;10682;50.874;3.656;2023-06-22T03:17:08;16.20;99.90
21047;DHT22;10682;50.874;3.656;2023-06-22T03:19:35;16.20;99.90
21047;DHT22;10682;50.874;3.656;2023-06-22T03:22:02;16.10;99.90
21047;DHT22;10682;50.874;3.656;2023-06-22T03:24:33;16.10;99.90
21047;DHT22;10682;50.874;3.656;2023-06-22T03:27:01;16.10;99.90
21047;DHT22;10682;50.874;3.656;2023-06-22T03:29:31;16.10;99.90
21047;DHT22;10682;50.874;3.656;2023-06-22T03:31:58;16.10;99.90
21047;DHT22;10682;50.874;3.656;2023-06-22T03:34:25;16.10;99.90
21047;DHT22;10682;50.874;3.656;2023-06-22T03:36:52;16.00;99.90
21047;DHT22;10682;50.874;3.656;2023-06-22T03:39:19;16.00;99.90
21047;DHT22;10682;50.874;3.656;2023-06-22T03:41:46;15.90;99.90
21047;DHT22;10682;50.874;3.656;2023-06-22T03:44:14;15.90;99.90
21047;DHT22;10682;50.874;3.656;2023-06-22T03:46:41;15.90;99.90
21047;DHT22;10682;50.874;3.656;2023-06-22T03:49:08;15.90;99.90
21047;DHT22;10682;50.874;3.656;2023-06-22T03:51:35;16.00;99.90
21047;DHT22;10682;50.874;3.656;2023-06-22T03:54:02;16.00;99.90
21047;DHT22;10682;50.874;3.656;2023-06-22T03:56:29;16.00;99.90
21047;DHT22;10682;50.874;3.656;2023-06-22T03:58:56;16.00;99.90
21047;DHT22;10682;50.874;3.656;2023-06-22T04:01:24;15.90;99.90
21047;DHT22;10682;50.874;3.656;2023-06-22T04:03:51;16.00;99.90
21047;DHT22;10682;50.874;3.656;2023-06-22T04:06:18;16.00;99.90
21047;DHT22;10682;50.874;3.656;2023-06-22T04:08:46;16.00;99.90
21047;DHT22;10682;50.874;3.656;2023-06-22T04:11:18;16.00;99.90
21047;DHT22;10682;50.874;3.656;2023-06-22T04:13:45;16.00;99.90
21047;DHT22;10682;50.874;3.656;2023-06-22T04:16:16;16.00;99.90
21047;DHT22;10682;50.874;3.656;2023-06-22T04:18:43;16.10;99.90
21047;DHT22;10682;50.874;3.656;2023-06-22T04:21:10;16.10;99.90
21047;DHT22;10682;50.874;3.656;2023-06-22T04:23:37;16.10;99.90
21047;DHT22;10682;50.874;3.656;2023-06-22T04:26:04;16.10;99.90
21047;DHT22;10682;50.874;3.656;2023-06-22T04:28:32;16.10;99.90
21047;DHT22;10682;50.874;3.656;2023-06-22T04:31:03;16.20;99.90
21047;DHT22;10682;50.874;3.656;2023-06-22T04:33:31;16.20;99.90
21047;DHT22;10682;50.874;3.656;2023-06-22T04:35:59;16.20;99.90
21047;DHT22;10682;50.874;3.656;2023-06-22T04:38:30;16.20;99.90
21047;DHT22;10682;50.874;3.656;2023-06-22T04:40:59;16.30;99.90
21047;DHT22;10682;50.874;3.656;2023-06-22T04:43:30;16.30;99.90
21047;DHT22;10682;50.874;3.656;2023-06-22T04:45:57;16.40;99.90
21047;DHT22;10682;50.874;3.656;2023-06-22T04:48:30;16.50;99.90
21047;DHT22;10682;50.874;3.656;2023-06-22T04:51:01;16.60;99.90
21047;DHT22;10682;50.874;3.656;2023-06-22T04:53:31;16.70;99.90
21047;DHT22;10682;50.874;3.656;2023-06-22T04:55:58;16.80;99.90
21047;DHT22;10682;50.874;3.656;2023-06-22T04:58:25;16.90;99.90
21047;DHT22;10682;50.874;3.656;2023-06-22T05:00:55;17.00;99.90
21047;DHT22;10682;50.874;3.656;2023-06-22T05:03:26;17.00;99.90
21047;DHT22;10682;50.874;3.656;2023-06-22T05:05:54;17.10;99.90
21047;DHT22;10682;50.874;3.656;2023-06-22T05:08:21;17.10;99.90
21047;DHT22;10682;50.874;3.656;2023-06-22T05:10:48;17.20;99.90
21047;DHT22;10682;50.874;3.656;2023-06-22T05:13:31;17.20;99.90
21047;DHT22;10682;50.874;3.656;2023-06-22T05:15:58;17.20;99.90
21047;DHT22;10682;50.874;3.656;2023-06-22T05:18:32;17.30;99.90
21047;DHT22;10682;50.874;3.656;2023-06-22T05:21:00;17.40;99.90
21047;DHT22;10682;50.874;3.656;2023-06-22T05:23:27;17.50;99.90
21047;DHT22;10682;50.874;3.656;2023-06-22T05:25:54;17.50;99.90
21047;DHT22;10682;50.874;3.656;2023-06-22T05:28:24;17.60;99.90
21047;DHT22;10682;50.874;3.656;2023-06-22T05:30:51;17.70;99.90
21047;DHT22;10682;50.874;3.656;2023-06-22T05:33:18;17.80;99.90
21047;DHT22;10682;50.874;3.656;2023-06-22T05:35:45;17.90;99.90
21047;DHT22;10682;50.874;3.656;2023-06-22T05:38:13;18.00;99.90
21047;DHT22;10682;50.874;3.656;2023-06-22T05:40:40;18.20;99.90
21047;DHT22;10682;50.874;3.656;2023-06-22T05:43:07;18.30;99.90
21047;DHT22;10682;50.874;3.656;2023-06-22T05:45:34;18.40;99.90
21047;DHT22;10682;50.874;3.656;2023-06-22T05:48:02;18.50;99.90
21047;DHT22;10682;50.874;3.656;2023-06-22T05:50:29;18.60;99.90
21047;DHT22;10682;50.874;3.656;2023-06-22T05:52:56;18.70;99.90
21047;DHT22;10682;50.874;3.656;2023-06-22T05:55:24;18.70;99.90
21047;DHT22;10682;50.874;3.656;2023-06-22T05:57:51;18.80;99.90
21047;DHT22;10682;50.874;3.656;2023-06-22T06:00:18;18.90;99.90
21047;DHT22;10682;50.874;3.656;2023-06-22T06:02:46;19.00;99.90
21047;DHT22;10682;50.874;3.656;2023-06-22T06:05:13;19.10;99.90
21047;DHT22;10682;50.874;3.656;2023-06-22T06:07:41;19.30;99.90
21047;DHT22;10682;50.874;3.656;2023-06-22T06:10:10;19.40;99.90
21047;DHT22;10682;50.874;3.656;2023-06-22T06:12:37;19.50;99.90
21047;DHT22;10682;50.874;3.656;2023-06-22T06:15:04;19.60;99.90
21047;DHT22;10682;50.874;3.656;2023-06-22T06:17:34;19.60;99.90
21047;DHT22;10682;50.874;3.656;2023-06-22T06:20:02;19.70;99.90
21047;DHT22;10682;50.874;3.656;2023-06-22T06:22:31;19.70;99.90
21047;DHT22;10682;50.874;3.656;2023-06-22T06:24:59;19.80;99.90
21047;DHT22;10682;50.874;3.656;2023-06-22T06:27:26;19.90;99.90
21047;DHT22;10682;50.874;3.656;2023-06-22T06:29:56;20.00;99.90
21047;DHT22;10682;50.874;3.656;2023-06-22T06:32:23;20.10;99.90
21047;DHT22;10682;50.874;3.656;2023-06-22T06:34:53;20.20;99.90
21047;DHT22;10682;50.874;3.656;2023-06-22T06:37:21;20.30;99.90
21047;DHT22;10682;50.874;3.656;2023-06-22T06:39:49;20.40;99.90
21047;DHT22;10682;50.874;3.656;2023-06-22T06:42:16;20.50;99.90
21047;DHT22;10682;50.874;3.656;2023-06-22T06:44:43;20.60;99.90
21047;DHT22;10682;50.874;3.656;2023-06-22T06:47:10;20.70;99.90
21047;DHT22;10682;50.874;3.656;2023-06-22T06:49:37;20.90;99.90
21047;DHT22;10682;50.874;3.656;2023-06-22T06:52:04;21.00;99.90
21047;DHT22;10682;50.874;3.656;2023-06-22T06:54:32;21.00;99.90
21047;DHT22;10682;50.874;3.656;2023-06-22T06:56:59;21.10;99.90
21047;DHT22;10682;50.874;3.656;2023-06-22T06:59:26;21.20;99.90
21047;DHT22;10682;50.874;3.656;2023-06-22T07:01:53;21.20;99.90
21047;DHT22;10682;50.874;3.656;2023-06-22T07:04:20;21.30;99.90
21047;DHT22;10682;50.874;3.656;2023-06-22T07:06:47;21.40;99.90
21047;DHT22;10682;50.874;3.656;2023-06-22T07:09:14;21.50;99.90
21047;DHT22;10682;50.874;3.656;2023-06-22T07:11:41;21.70;99.90
21047;DHT22;10682;50.874;3.656;2023-06-22T07:14:08;21.70;99.90
21047;DHT22;10682;50.874;3.656;2023-06-22T07:16:38;21.80;99.90
21047;DHT22;10682;50.874;3.656;2023-06-22T07:19:07;21.90;99.90
21047;DHT22;10682;50.874;3.656;2023-06-22T07:21:36;22.10;99.90
21047;DHT22;10682;50.874;3.656;2023-06-22T07:24:05;22.20;99.90
21047;DHT22;10682;50.874;3.656;2023-06-22T07:26:33;22.30;99.90
21047;DHT22;10682;50.874;3.656;2023-06-22T07:29:00;22.40;99.90
21047;DHT22;10682;50.874;3.656;2023-06-22T07:31:27;22.40;99.90
21047;DHT22;10682;50.874;3.656;2023-06-22T07:33:54;22.50;99.90
21047;DHT22;10682;50.874;3.656;2023-06-22T07:36:22;22.50;99.90
21047;DHT22;10682;50.874;3.656;2023-06-22T07:38:49;22.60;99.90
21047;DHT22;10682;50.874;3.656;2023-06-22T07:41:16;22.80;99.90
21047;DHT22;10682;50.874;3.656;2023-06-22T07:43:43;22.90;99.90
21047;DHT22;10682;50.874;3.656;2023-06-22T07:46:10;23.00;99.90
21047;DHT22;10682;50.874;3.656;2023-06-22T07:48:37;23.00;99.90
21047;DHT22;10682;50.874;3.656;2023-06-22T07:51:05;23.10;99.90
21047;DHT22;10682;50.874;3.656;2023-06-22T07:53:33;23.20;99.90
21047;DHT22;10682;50.874;3.656;2023-06-22T07:56:00;23.30;99.90
21047;DHT22;10682;50.874;3.656;2023-06-22T07:58:27;23.30;99.90
21047;DHT22;10682;50.874;3.656;2023-06-22T08:00:54;23.30;99.90
21047;DHT22;10682;50.874;3.656;2023-06-22T08:03:27;23.30;99.90
21047;DHT22;10682;50.874;3.656;2023-06-22T08:06:00;23.30;99.90
21047;DHT22;10682;50.874;3.656;2023-06-22T08:08:31;23.20;99.90
21047;DHT22;10682;50.874;3.656;2023-06-22T08:10:58;23.20;99.90
21047;DHT22;10682;50.874;3.656;2023-06-22T08:13:25;23.10;99.90
21047;DHT22;10682;50.874;3.656;2023-06-22T08:15:52;23.10;99.90
21047;DHT22;10682;50.874;3.656;2023-06-22T08:18:19;23.00;99.90
21047;DHT22;10682;50.874;3.656;2023-06-22T08:20:47;23.00;99.90
21047;DHT22;10682;50.874;3.656;2023-06-22T08:23:14;22.90;99.90
21047;DHT22;10682;50.874;3.656;2023-06-22T08:25:41;22.90;99.90
21047;DHT22;10682;50.874;3.656;2023-06-22T08:28:08;22.90;99.90
21047;DHT22;10682;50.874;3.656;2023-06-22T08:30:35;22.90;99.90
21047;DHT22;10682;50.874;3.656;2023-06-22T08:33:02;23.00;99.90
21047;DHT22;10682;50.874;3.656;2023-06-22T08:35:30;22.90;99.90
21047;DHT22;10682;50.874;3.656;2023-06-22T08:37:57;22.90;99.90
21047;DHT22;10682;50.874;3.656;2023-06-22T08:40:26;22.80;99.90
21047;DHT22;10682;50.874;3.656;2023-06-22T08:42:53;22.80;99.90
21047;DHT22;10682;50.874;3.656;2023-06-22T08:45:20;22.90;99.90
21047;DHT22;10682;50.874;3.656;2023-06-22T08:47:47;22.80;99.90
21047;DHT22;10682;50.874;3.656;2023-06-22T08:50:15;22.70;99.90
21047;DHT22;10682;50.874;3.656;2023-06-22T08:52:44;22.60;99.90
21047;DHT22;10682;50.874;3.656;2023-06-22T08:55:12;22.60;99.90
21047;DHT22;10682;50.874;3.656;2023-06-22T08:57:41;22.50;99.90
21047;DHT22;10682;50.874;3.656;2023-06-22T09:00:09;22.50;99.90
21047;DHT22;10682;50.874;3.656;2023-06-22T09:02:44;22.40;99.90
21047;DHT22;10682;50.874;3.656;2023-06-22T09:05:12;22.40;99.90
21047;DHT22;10682;50.874;3.656;2023-06-22T09:07:40;22.30;99.90
21047;DHT22;10682;50.874;3.656;2023-06-22T09:10:07;22.20;99.90
21047;DHT22;10682;50.874;3.656;2023-06-22T09:12:34;22.20;99.90
21047;DHT22;10682;50.874;3.656;2023-06-22T09:15:04;22.10;99.90
21047;DHT22;10682;50.874;3.656;2023-06-22T09:17:54;22.00;99.90
21047;DHT22;10682;50.874;3.656;2023-06-22T09:20:21;22.00;99.90
21047;DHT22;10682;50.874;3.656;2023-06-22T09:26:09;21.90;99.90
21047;DHT22;10682;50.874;3.656;2023-06-22T09:28:36;21.80;99.90
21047;DHT22;10682;50.874;3.656;2023-06-22T09:31:03;21.70;99.90
21047;DHT22;10682;50.874;3.656;2023-06-22T09:33:30;21.70;99.90
21047;DHT22;10682;50.874;3.656;2023-06-22T09:35:58;21.60;99.90
21047;DHT22;10682;50.874;3.656;2023-06-22T09:38:25;21.50;99.90
21047;DHT22;10682;50.874;3.656;2023-06-22T09:40:52;21.50;99.90
21047;DHT22;10682;50.874;3.656;2023-06-22T09:43:19;21.40;99.90
21047;DHT22;10682;50.874;3.656;2023-06-22T09:45:46;21.50;99.90
21047;DHT22;10682;50.874;3.656;2023-06-22T09:48:13;21.40;99.90
21047;DHT22;10682;50.874;3.656;2023-06-22T09:50:41;21.40;99.90
21047;DHT22;10682;50.874;3.656;2023-06-22T09:53:08;21.40;99.90
21047;DHT22;10682;50.874;3.656;2023-06-22T09:55:35;21.30;99.90
21047;DHT22;10682;50.874;3.656;2023-06-22T09:58:02;21.30;99.90
21047;DHT22;10682;50.874;3.656;2023-06-22T10:00:29;21.20;99.90
21047;DHT22;10682;50.874;3.656;2023-06-22T10:02:57;21.20;99.90
21047;DHT22;10682;50.874;3.656;2023-06-22T10:05:27;21.20;99.90
21047;DHT22;10682;50.874;3.656;2023-06-22T10:07:54;21.20;99.90
21047;DHT22;10682;50.874;3.656;2023-06-22T10:10:21;21.20;99.90
21047;DHT22;10682;50.874;3.656;2023-06-22T10:12:56;21.10;99.90
21047;DHT22;10682;50.874;3.656;2023-06-22T10:15:25;21.10;99.90
21047;DHT22;10682;50.874;3.656;2023-06-22T10:17:58;21.20;99.90
21047;DHT22;10682;50.874;3.656;2023-06-22T10:20:25;21.20;99.90
21047;DHT22;10682;50.874;3.656;2023-06-22T10:22:53;21.20;99.90
21047;DHT22;10682;50.874;3.656;2023-06-22T10:25:22;21.20;99.90
21047;DHT22;10682;50.874;3.656;2023-06-22T10:27:50;21.20;99.90
21047;DHT22;10682;50.874;3.656;2023-06-22T10:30:17;21.20;99.90
21047;DHT22;10682;50.874;3.656;2023-06-22T10:32:48;21.10;99.90
21047;DHT22;10682;50.874;3.656;2023-06-22T10:35:15;21.10;99.90
21047;DHT22;10682;50.874;3.656;2023-06-22T10:37:44;21.10;99.90
21047;DHT22;10682;50.874;3.656;2023-06-22T10:40:13;21.00;99.90
21047;DHT22;10682;50.874;3.656;2023-06-22T10:42:42;20.80;99.90
21047;DHT22;10682;50.874;3.656;2023-06-22T10:45:09;20.70;99.90
21047;DHT22;10682;50.874;3.656;2023-06-22T10:47:37;20.70;99.90
21047;DHT22;10682;50.874;3.656;2023-06-22T10:50:05;20.70;99.90
21047;DHT22;10682;50.874;3.656;2023-06-22T10:52:32;20.70;99.90
21047;DHT22;10682;50.874;3.656;2023-06-22T10:54:59;20.60;99.90
21047;DHT22;10682;50.874;3.656;2023-06-22T10:57:26;20.60;99.90
21047;DHT22;10682;50.874;3.656;2023-06-22T10:59:54;20.60;99.90
21047;DHT22;10682;50.874;3.656;2023-06-22T11:02:21;20.60;99.90
21047;DHT22;10682;50.874;3.656;2023-06-22T11:04:48;20.50;99.90
21047;DHT22;10682;50.874;3.656;2023-06-22T11:07:15;20.50;99.90
21047;DHT22;10682;50.874;3.656;2023-06-22T11:09:43;20.40;99.90
21047;DHT22;10682;50.874;3.656;2023-06-22T11:12:10;20.30;99.90
21047;DHT22;10682;50.874;3.656;2023-06-22T11:14:39;20.30;99.90
21047;DHT22;10682;50.874;3.656;2023-06-22T11:17:06;20.30;99.90
21047;DHT22;10682;50.874;3.656;2023-06-22T11:19:33;20.20;99.90
21047;DHT22;10682;50.874;3.656;2023-06-22T11:22:00;20.20;99.90
21047;DHT22;10682;50.874;3.656;2023-06-22T11:24:27;20.20;99.90
21047;DHT22;10682;50.874;3.656;2023-06-22T11:26:54;20.10;99.90
21047;DHT22;10682;50.874;3.656;2023-06-22T11:29:24;20.00;99.90
21047;DHT22;10682;50.874;3.656;2023-06-22T11:32:04;19.90;99.90
21047;DHT22;10682;50.874;3.656;2023-06-22T11:34:33;19.80;99.90
21047;DHT22;10682;50.874;3.656;2023-06-22T11:37:00;19.70;99.90
21047;DHT22;10682;50.874;3.656;2023-06-22T11:39:28;19.60;99.90
21047;DHT22;10682;50.874;3.656;2023-06-22T11:42:07;19.60;99.90
21047;DHT22;10682;50.874;3.656;2023-06-22T11:44:38;19.60;99.90
21047;DHT22;10682;50.874;3.656;2023-06-22T11:47:05;19.70;99.90
21047;DHT22;10682;50.874;3.656;2023-06-22T11:49:32;19.60;99.90
21047;DHT22;10682;50.874;3.656;2023-06-22T11:52:00;19.70;99.90
21047;DHT22;10682;50.874;3.656;2023-06-22T11:54:27;19.70;99.90
21047;DHT22;10682;50.874;3.656;2023-06-22T11:56:54;19.70;99.90
21047;DHT22;10682;50.874;3.656;2023-06-22T11:59:21;19.80;99.90
21047;DHT22;10682;50.874;3.656;2023-06-22T12:01:49;19.90;99.90
21047;DHT22;10682;50.874;3.656;2023-06-22T12:04:20;19.80;99.90
21047;DHT22;10682;50.874;3.656;2023-06-22T12:06:49;19.70;99.90
21047;DHT22;10682;50.874;3.656;2023-06-22T12:09:16;19.70;99.90
21047;DHT22;10682;50.874;3.656;2023-06-22T12:11:43;19.80;99.90
21047;DHT22;10682;50.874;3.656;2023-06-22T12:14:10;19.80;99.90
21047;DHT22;10682;50.874;3.656;2023-06-22T12:16:37;19.80;99.90
21047;DHT22;10682;50.874;3.656;2023-06-22T12:19:04;19.80;99.90
21047;DHT22;10682;50.874;3.656;2023-06-22T12:21:33;19.70;99.90
21047;DHT22;10682;50.874;3.656;2023-06-22T12:24:00;19.60;99.90
21047;DHT22;10682;50.874;3.656;2023-06-22T12:26:27;19.60;99.90
21047;DHT22;10682;50.874;3.656;2023-06-22T12:28:54;19.80;99.90
21047;DHT22;10682;50.874;3.656;2023-06-22T12:31:21;19.70;99.90
21047;DHT22;10682;50.874;3.656;2023-06-22T12:33:48;19.60;99.90
21047;DHT22;10682;50.874;3.656;2023-06-22T12:36:15;19.60;99.90
21047;DHT22;10682;50.874;3.656;2023-06-22T12:38:43;19.60;99.90
21047;DHT22;10682;50.874;3.656;2023-06-22T12:41:10;19.50;99.90
21047;DHT22;10682;50.874;3.656;2023-06-22T12:43:37;19.50;99.90
21047;DHT22;10682;50.874;3.656;2023-06-22T12:46:04;19.50;99.90
21047;DHT22;10682;50.874;3.656;2023-06-22T12:48:31;19.50;99.90
21047;DHT22;10682;50.874;3.656;2023-06-22T12:50:58;19.50;99.90
21047;DHT22;10682;50.874;3.656;2023-06-22T12:53:25;19.50;99.90
21047;DHT22;10682;50.874;3.656;2023-06-22T12:55:54;19.50;99.90
21047;DHT22;10682;50.874;3.656;2023-06-22T12:58:21;19.40;99.90
21047;DHT22;10682;50.874;3.656;2023-06-22T13:00:48;19.30;99.90
21047;DHT22;10682;50.874;3.656;2023-06-22T13:03:15;19.30;99.90
21047;DHT22;10682;50.874;3.656;2023-06-22T13:05:43;19.30;99.90
21047;DHT22;10682;50.874;3.656;2023-06-22T13:08:10;19.30;99.90
21047;DHT22;10682;50.874;3.656;2023-06-22T13:10:39;19.40;99.90
21047;DHT22;10682;50.874;3.656;2023-06-22T13:13:06;19.40;99.90
21047;DHT22;10682;50.874;3.656;2023-06-22T13:15:33;19.30;99.90
21047;DHT22;10682;50.874;3.656;2023-06-22T13:18:00;19.30;99.90
21047;DHT22;10682;50.874;3.656;2023-06-22T13:20:29;19.30;99.90
21047;DHT22;10682;50.874;3.656;2023-06-22T13:22:56;19.30;99.90
21047;DHT22;10682;50.874;3.656;2023-06-22T13:25:23;19.30;99.90
21047;DHT22;10682;50.874;3.656;2023-06-22T13:27:53;19.30;99.90
21047;DHT22;10682;50.874;3.656;2023-06-22T13:30:20;19.30;99.90
21047;DHT22;10682;50.874;3.656;2023-06-22T13:32:47;19.40;99.90
21047;DHT22;10682;50.874;3.656;2023-06-22T13:35:18;19.50;99.90
21047;DHT22;10682;50.874;3.656;2023-06-22T13:37:45;19.50;99.90
21047;DHT22;10682;50.874;3.656;2023-06-22T13:40:12;19.60;99.90
21047;DHT22;10682;50.874;3.656;2023-06-22T13:42:39;19.60;99.90
21047;DHT22;10682;50.874;3.656;2023-06-22T13:45:07;19.70;99.90
21047;DHT22;10682;50.874;3.656;2023-06-22T13:47:34;19.90;99.90
21047;DHT22;10682;50.874;3.656;2023-06-22T13:50:02;20.10;99.90
21047;DHT22;10682;50.874;3.656;2023-06-22T13:52:29;20.40;99.90
21047;DHT22;10682;50.874;3.656;2023-06-22T13:54:56;20.60;99.90
21047;DHT22;10682;50.874;3.656;2023-06-22T13:57:23;20.80;99.90
21047;DHT22;10682;50.874;3.656;2023-06-22T13:59:51;21.00;99.90
21047;DHT22;10682;50.874;3.656;2023-06-22T14:02:18;21.30;99.90
21047;DHT22;10682;50.874;3.656;2023-06-22T14:05:03;21.60;99.90
21047;DHT22;10682;50.874;3.656;2023-06-22T14:07:31;22.00;99.90
21047;DHT22;10682;50.874;3.656;2023-06-22T14:09:59;22.20;99.90
21047;DHT22;10682;50.874;3.656;2023-06-22T14:12:26;22.10;99.90
21047;DHT22;10682;50.874;3.656;2023-06-22T14:14:54;22.20;99.90
21047;DHT22;10682;50.874;3.656;2023-06-22T14:17:21;22.20;99.90
21047;DHT22;10682;50.874;3.656;2023-06-22T14:19:52;22.30;99.90
21047;DHT22;10682;50.874;3.656;2023-06-22T14:22:20;22.20;99.90
21047;DHT22;10682;50.874;3.656;2023-06-22T14:24:48;22.40;99.90
21047;DHT22;10682;50.874;3.656;2023-06-22T14:27:15;22.40;99.90
21047;DHT22;10682;50.874;3.656;2023-06-22T14:29:42;22.30;99.90
21047;DHT22;10682;50.874;3.656;2023-06-22T14:32:10;22.30;99.90
21047;DHT22;10682;50.874;3.656;2023-06-22T14:34:37;22.40;99.90
21047;DHT22;10682;50.874;3.656;2023-06-22T14:37:10;22.60;99.90
21047;DHT22;10682;50.874;3.656;2023-06-22T14:39:37;22.70;99.90
21047;DHT22;10682;50.874;3.656;2023-06-22T14:42:06;22.70;99.90
21047;DHT22;10682;50.874;3.656;2023-06-22T14:44:33;22.70;99.90
21047;DHT22;10682;50.874;3.656;2023-06-22T14:47:00;22.60;99.90
21047;DHT22;10682;50.874;3.656;2023-06-22T14:49:27;22.60;99.90
21047;DHT22;10682;50.874;3.656;2023-06-22T14:51:54;22.70;99.90
21047;DHT22;10682;50.874;3.656;2023-06-22T14:54:21;22.70;99.90
21047;DHT22;10682;50.874;3.656;2023-06-22T14:56:48;22.90;99.90
21047;DHT22;10682;50.874;3.656;2023-06-22T14:59:15;23.10;99.90
21047;DHT22;10682;50.874;3.656;2023-06-22T15:01:42;22.90;99.90
21047;DHT22;10682;50.874;3.656;2023-06-22T15:04:13;22.80;99.90
21047;DHT22;10682;50.874;3.656;2023-06-22T15:06:40;22.70;99.90
21047;DHT22;10682;50.874;3.656;2023-06-22T15:09:07;22.50;99.90
21047;DHT22;10682;50.874;3.656;2023-06-22T15:11:34;22.30;99.90
21047;DHT22;10682;50.874;3.656;2023-06-22T15:14:01;22.10;99.90
21047;DHT22;10682;50.874;3.656;2023-06-22T15:16:28;22.10;99.90
21047;DHT22;10682;50.874;3.656;2023-06-22T15:18:55;22.10;99.90
21047;DHT22;10682;50.874;3.656;2023-06-22T15:21:22;22.10;99.90
21047;DHT22;10682;50.874;3.656;2023-06-22T15:23:50;22.20;99.90
21047;DHT22;10682;50.874;3.656;2023-06-22T15:26:16;22.20;99.90
21047;DHT22;10682;50.874;3.656;2023-06-22T15:28:44;22.30;99.90
21047;DHT22;10682;50.874;3.656;2023-06-22T15:31:11;22.30;99.90
21047;DHT22;10682;50.874;3.656;2023-06-22T15:33:38;22.40;99.90
21047;DHT22;10682;50.874;3.656;2023-06-22T15:36:05;22.40;99.90
21047;DHT22;10682;50.874;3.656;2023-06-22T15:38:33;22.40;99.90
21047;DHT22;10682;50.874;3.656;2023-06-22T15:41:00;22.40;99.90
21047;DHT22;10682;50.874;3.656;2023-06-22T15:43:28;22.40;99.90